Time;durP1;ratioP1;P1;durP2;ratioP2;P2;SDS_P1;SDS_P2;PMS_P1;PMS_P2;Temp;Humidity;BMP_temperature;BMP_pressure;BME280_temperature;BME280_humidity;BME280_pressure;Samples;Min_cycle;Max_cycle;Signal;HPM_P1;HPM_P2
2023/03/22 00:00:35;;;;;;;13.00;2.58;;;;;;;6.63;100.00;100960.72;5114296;28;20400;-67
2023/03/22 00:03:01;;;;;;;15.50;3.00;;;;;;;6.68;100.00;100964.69;5115345;28;20035;-68
2023/03/22 00:05:29;;;;;;;15.10;2.38;;;;;;;6.73;100.00;100963.50;5114167;28;20028;-68
2023/03/22 00:07:56;;;;;;;12.07;2.38;;;;;;;6.75;100.00;100965.09;5115039;28;20032;-68
2023/03/22 00:10:24;;;;;;;18.50;2.92;;;;;;;6.77;100.00;100962.34;5115240;28;20027;-68
2023/03/22 00:12:50;;;;;;;16.48;2.45;;;;;;;6.84;100.00;100963.59;5114864;28;20043;-68
2023/03/22 00:15:17;;;;;;;19.42;2.47;;;;;;;6.81;100.00;100954.06;5115133;28;20430;-68
2023/03/22 00:17:43;;;;;;;16.77;2.88;;;;;;;6.86;100.00;100951.91;5113631;28;20071;-68
2023/03/22 00:20:10;;;;;;;15.88;2.70;;;;;;;6.85;100.00;100949.38;5115404;28;20042;-68
2023/03/22 00:22:36;;;;;;;12.82;2.58;;;;;;;6.86;100.00;100938.69;5115277;28;20031;-69
2023/03/22 00:25:02;;;;;;;13.63;2.60;;;;;;;6.82;100.00;100939.03;5114646;28;20028;-69
2023/03/22 00:27:27;;;;;;;14.55;2.75;;;;;;;6.82;100.00;100936.41;5115124;28;20093;-68
2023/03/22 00:29:53;;;;;;;12.88;2.20;;;;;;;6.79;100.00;100929.56;5114584;28;20039;-68
2023/03/22 00:32:18;;;;;;;9.63;2.55;;;;;;;6.80;100.00;100931.22;5114696;28;20476;-68
2023/03/22 00:34:44;;;;;;;20.55;3.00;;;;;;;6.81;100.00;100917.03;5115135;28;20103;-68
2023/03/22 00:37:09;;;;;;;18.02;3.55;;;;;;;6.83;100.00;100923.06;5113766;28;20063;-68
2023/03/22 00:42:56;;;;;;;13.10;3.33;;;;;;;6.93;100.00;100911.81;5294126;22;20067;-69
2023/03/22 00:45:21;;;;;;;18.35;3.40;;;;;;;6.95;100.00;100902.78;5053812;28;20037;-68
2023/03/22 00:47:47;;;;;;;19.13;3.55;;;;;;;6.97;100.00;100895.59;5052200;28;20174;-70
2023/03/22 00:50:12;;;;;;;13.68;3.00;;;;;;;7.00;100.00;100900.66;5035580;28;20417;-69
2023/03/22 00:52:37;;;;;;;17.35;3.58;;;;;;;7.03;100.00;100894.28;5052987;28;20036;-67
2023/03/22 00:55:03;;;;;;;18.33;3.10;;;;;;;7.02;100.00;100887.31;5052900;28;20100;-70
2023/03/22 00:57:28;;;;;;;11.30;3.15;;;;;;;6.98;100.00;100884.03;5053916;28;20068;-69
2023/03/22 00:59:54;;;;;;;10.80;2.67;;;;;;;7.01;100.00;100888.28;5053073;28;20473;-70
2023/03/22 01:02:28;;;;;;;12.40;2.95;;;;;;;7.03;100.00;100888.97;5053758;28;20119;-68
2023/03/22 01:04:54;;;;;;;15.10;2.47;;;;;;;7.06;100.00;100886.13;5053400;28;20032;-68
2023/03/22 01:07:22;;;;;;;18.73;3.28;;;;;;;7.09;100.00;100880.63;5053616;28;20108;-69
2023/03/22 01:09:49;;;;;;;13.18;3.45;;;;;;;7.13;100.00;100875.94;5053132;28;20473;-71
2023/03/22 01:12:16;;;;;;;11.07;3.00;;;;;;;7.12;100.00;100861.88;5053350;28;20119;-70
2023/03/22 01:14:41;;;;;;;10.90;3.03;;;;;;;7.10;100.00;100858.47;5053685;28;20033;-70
2023/03/22 01:17:07;;;;;;;18.13;3.30;;;;;;;7.06;100.00;100855.22;5053611;28;20039;-70
2023/03/22 01:19:34;;;;;;;10.80;2.72;;;;;;;7.05;100.00;100850.88;5053525;28;20198;-70
2023/03/22 01:21:59;;;;;;;11.90;2.90;;;;;;;7.03;100.00;100851.94;5035428;28;20086;-70
2023/03/22 01:24:25;;;;;;;18.58;3.05;;;;;;;7.01;100.00;100838.00;5035588;28;20033;-69
2023/03/22 01:26:50;;;;;;;11.23;2.97;;;;;;;6.97;100.00;100833.91;5053013;28;20527;-69
2023/03/22 01:29:16;;;;;;;13.73;2.63;;;;;;;6.95;100.00;100834.00;5035622;28;20049;-70
2023/03/22 01:31:42;;;;;;;10.27;2.42;;;;;;;6.98;100.00;100827.66;5068475;28;20029;-70
2023/03/22 01:34:07;;;;;;;20.08;3.58;;;;;;;6.98;100.00;100822.38;5035065;28;20533;-70
2023/03/22 01:36:33;;;;;;;12.35;2.88;;;;;;;7.00;100.00;100820.44;5068539;28;20036;-70
2023/03/22 01:38:58;;;;;;;8.25;2.72;;;;;;;7.01;100.00;100807.09;5052487;28;20078;-70
2023/03/22 01:41:24;;;;;;;11.52;2.53;;;;;;;7.02;100.00;100808.78;5052867;28;20107;-70
2023/03/22 01:44:11;;;;;;;8.90;2.20;;;;;;;7.10;100.00;100796.78;5052640;28;20048;-70
2023/03/22 01:46:39;;;;;;;12.73;3.10;;;;;;;7.12;100.00;100795.72;5053005;28;20110;-70
2023/03/22 01:49:12;;;;;;;11.27;2.40;;;;;;;7.14;100.00;100790.31;5052582;28;20032;-69
2023/03/22 01:51:39;;;;;;;12.20;2.33;;;;;;;7.12;100.00;100787.78;5052892;28;20028;-69
2023/03/22 01:54:08;;;;;;;11.52;2.72;;;;;;;7.11;100.00;100794.00;5034593;28;20036;-70
2023/03/22 01:56:37;;;;;;;15.35;2.75;;;;;;;7.10;100.00;100788.84;5035454;28;20037;-70
2023/03/22 01:59:04;;;;;;;14.38;3.20;;;;;;;7.10;100.00;100791.50;5052450;28;20108;-69
2023/03/22 02:01:31;;;;;;;13.25;2.95;;;;;;;7.15;100.00;100789.31;5034815;28;20469;-69
2023/03/22 02:04:14;;;;;;;11.98;2.80;;;;;;;7.27;100.00;100785.75;5052334;28;20037;-70
2023/03/22 02:06:40;;;;;;;7.75;2.95;;;;;;;7.31;100.00;100773.94;5052824;28;20025;-70
2023/03/22 02:09:08;;;;;;;10.57;3.35;;;;;;;7.36;100.00;100776.22;5052003;28;20535;-70
2023/03/22 02:11:40;;;;;;;9.10;3.60;;;;;;;7.48;100.00;100774.41;5052508;28;20082;-69
2023/03/22 02:14:47;;;;;;;14.13;3.80;;;;;;;7.65;100.00;100766.00;5052121;28;20040;-70
2023/03/22 02:17:26;;;;;;;8.82;3.50;;;;;;;7.69;100.00;100754.19;5051625;28;20037;-70
2023/03/22 02:20:12;;;;;;;16.30;4.35;;;;;;;7.69;100.00;100748.91;5051826;28;20362;-71
2023/03/22 02:22:38;;;;;;;11.80;3.97;;;;;;;7.72;100.00;100748.66;5067587;28;20454;-70
2023/03/22 02:25:19;;;;;;;9.40;4.43;;;;;;;7.82;100.00;100748.75;5051982;28;20116;-70
2023/03/22 02:27:59;;;;;;;10.00;4.00;;;;;;;7.80;100.00;100766.59;5052200;28;20488;-70
2023/03/22 02:30:35;;;;;;;10.77;4.72;;;;;;;7.79;100.00;100740.22;5052402;28;20472;-69
2023/03/22 02:33:24;;;;;;;13.75;5.13;;;;;;;7.75;100.00;100747.59;5051762;28;20037;-69
2023/03/22 02:36:21;;;;;;;15.73;4.40;;;;;;;7.69;100.00;100746.25;5052170;28;20037;-69
2023/03/22 02:39:14;;;;;;;9.35;4.43;;;;;;;7.67;100.00;100745.53;5050047;28;20041;-69
2023/03/22 02:41:57;;;;;;;12.38;4.80;;;;;;;7.65;100.00;100742.16;5052314;28;20068;-69
2023/03/22 02:44:50;;;;;;;9.15;4.45;;;;;;;7.65;100.00;100736.03;5052287;28;20178;-69
2023/03/22 02:48:01;;;;;;;15.98;5.93;;;;;;;7.63;100.00;100736.16;5051834;28;20037;-69
2023/03/22 02:50:36;;;;;;;11.20;5.35;;;;;;;7.57;100.00;100731.34;5052098;28;20033;-69
2023/03/22 02:53:04;;;;;;;12.02;5.00;;;;;;;7.53;100.00;100732.56;5051834;28;20033;-70
2023/03/22 02:55:57;;;;;;;8.48;4.70;;;;;;;7.50;100.00;100725.69;5052147;28;20036;-69
2023/03/22 02:58:28;;;;;;;18.08;5.03;;;;;;;7.48;100.00;100729.41;5052705;28;20032;-70
2023/03/22 03:01:00;;;;;;;11.32;4.63;;;;;;;7.46;100.00;100726.06;5034240;28;20049;-71
2023/03/22 03:03:28;;;;;;;10.75;5.00;;;;;;;7.42;100.00;100714.88;5052400;28;20040;-70
2023/03/22 03:06:03;;;;;;;13.38;4.70;;;;;;;7.37;100.00;100715.22;5052022;28;20036;-70
2023/03/22 03:08:29;;;;;;;12.35;4.97;;;;;;;7.37;100.00;100720.50;5051802;28;20090;-70
2023/03/22 03:10:55;;;;;;;13.88;4.88;;;;;;;7.38;100.00;100711.63;5052087;28;20037;-70
2023/03/22 03:13:20;;;;;;;15.90;5.32;;;;;;;7.40;100.00;100715.00;5051609;28;20028;-70
2023/03/22 03:15:51;;;;;;;14.63;5.65;;;;;;;7.44;100.00;100709.47;5052188;28;20033;-69
2023/03/22 03:18:39;;;;;;;13.45;5.15;;;;;;;7.45;100.00;100712.00;5051422;28;20111;-70
2023/03/22 03:21:34;;;;;;;14.05;5.53;;;;;;;7.43;100.00;100697.19;5051889;28;20036;-69
2023/03/22 03:24:24;;;;;;;15.02;5.93;;;;;;;7.40;100.00;100701.78;5051681;28;20037;-71
2023/03/22 03:26:53;;;;;;;17.45;5.18;;;;;;;7.36;100.00;100700.31;5051641;28;20044;-70
2023/03/22 03:29:28;;;;;;;17.08;5.90;;;;;;;7.37;100.00;100704.63;5051747;28;20075;-70
2023/03/22 03:32:24;;;;;;;14.45;5.88;;;;;;;7.38;100.00;100697.56;5067073;28;20380;-69
2023/03/22 03:35:00;;;;;;;12.15;5.18;;;;;;;7.39;100.00;100700.06;5052410;28;20083;-70
2023/03/22 03:37:35;;;;;;;12.68;5.10;;;;;;;7.37;100.00;100701.16;5055400;28;20086;-70
2023/03/22 03:40:20;;;;;;;9.35;4.95;;;;;;;7.34;100.00;100693.47;5055629;28;20033;-69
2023/03/22 03:42:50;;;;;;;15.13;6.10;;;;;;;7.38;100.00;100700.19;5054825;28;20389;-69
2023/03/22 03:45:17;;;;;;;13.77;5.43;;;;;;;7.33;100.00;100692.63;5055173;28;20045;-70
2023/03/22 03:47:54;;;;;;;15.77;5.50;;;;;;;7.30;100.00;100692.88;5055565;28;20061;-69
2023/03/22 03:50:19;;;;;;;20.27;6.90;;;;;;;7.34;100.00;100691.66;5054942;28;20036;-70
2023/03/22 03:52:45;;;;;;;19.45;6.50;;;;;;;7.40;100.00;100698.25;5055170;28;20037;-70
2023/03/22 03:55:10;;;;;;;13.75;6.30;;;;;;;7.41;100.00;100690.19;5054778;28;20033;-70
2023/03/22 03:57:36;;;;;;;19.55;6.70;;;;;;;7.39;100.00;100699.25;5055082;28;20064;-70
2023/03/22 04:00:02;;;;;;;16.15;6.50;;;;;;;7.35;100.00;100695.97;5055205;28;20465;-69
2023/03/22 04:02:28;;;;;;;12.40;6.72;;;;;;;7.37;100.00;100694.03;5054918;28;20491;-70
2023/03/22 04:04:53;;;;;;;13.40;6.63;;;;;;;7.40;100.00;100685.03;5054724;28;20060;-69
2023/03/22 04:07:18;;;;;;;18.15;6.10;;;;;;;7.44;100.00;100683.81;5054534;28;20063;-70
2023/03/22 04:09:44;;;;;;;12.45;6.32;;;;;;;7.43;100.00;100673.34;5054744;28;20032;-69
2023/03/22 04:12:09;;;;;;;14.35;6.45;;;;;;;7.45;100.00;100677.56;5054358;28;20117;-70
2023/03/22 04:14:35;;;;;;;12.00;6.22;;;;;;;7.44;100.00;100675.06;5054981;28;20040;-69
2023/03/22 04:17:00;;;;;;;15.02;6.45;;;;;;;7.47;100.00;100675.63;5054717;28;20033;-70
2023/03/22 04:19:26;;;;;;;12.98;5.70;;;;;;;7.52;100.00;100667.31;5054379;28;20029;-69
2023/03/22 04:21:52;;;;;;;16.60;6.85;;;;;;;7.57;100.00;100673.09;5054702;28;20039;-69
2023/03/22 04:24:18;;;;;;;15.35;6.18;;;;;;;7.63;100.00;100671.75;5053944;28;20033;-70
2023/03/22 04:26:43;;;;;;;17.95;5.93;;;;;;;7.69;100.00;100680.03;5055056;28;20063;-69
2023/03/22 04:29:08;;;;;;;13.55;6.30;;;;;;;7.68;100.00;100665.13;5036301;28;20460;-69
2023/03/22 04:31:37;;;;;;;12.15;5.63;;;;;;;7.68;100.00;100666.94;5069779;28;20040;-69
2023/03/22 04:34:06;;;;;;;14.40;5.75;;;;;;;7.66;100.00;100669.72;5054454;28;20037;-70
2023/03/22 04:36:38;;;;;;;16.73;5.75;;;;;;;7.67;100.00;100659.94;5053855;28;20060;-69
2023/03/22 04:39:08;;;;;;;;;;;;;;;7.66;100.00;100661.75;5054909;28;20507;-69
2023/03/22 04:41:34;;;;;;;14.90;5.25;;;;;;;7.65;100.00;100652.13;5054243;28;20402;-70
2023/03/22 04:44:03;;;;;;;10.90;5.40;;;;;;;7.62;100.00;100660.31;5054046;28;20049;-69
2023/03/22 04:46:35;;;;;;;14.80;5.20;;;;;;;7.61;100.00;100652.50;5053401;28;20059;-68
2023/03/22 04:49:00;;;;;;;12.48;5.40;;;;;;;7.62;100.00;100657.66;5054126;28;20119;-68
2023/03/22 04:51:27;;;;;;;13.98;5.13;;;;;;;7.66;100.00;100647.66;5053623;28;20124;-68
2023/03/22 04:53:53;;;;;;;14.02;4.82;;;;;;;7.71;100.00;100651.63;5054141;28;20465;-68
2023/03/22 04:56:19;;;;;;;16.25;5.25;;;;;;;7.76;100.00;100651.25;5053220;28;20094;-70
2023/03/22 04:58:45;;;;;;;14.43;4.60;;;;;;;7.80;100.00;100643.91;5054286;28;20358;-70
2023/03/22 05:01:12;;;;;;;9.93;4.57;;;;;;;7.83;100.00;100643.66;5053863;28;20095;-70
2023/03/22 05:03:40;;;;;;;12.13;4.78;;;;;;;7.88;100.00;100641.44;5035978;28;20473;-69
2023/03/22 05:06:07;;;;;;;10.50;4.22;;;;;;;7.88;100.00;100636.16;5053841;28;20123;-69
2023/03/22 05:08:33;;;;;;;12.18;4.05;;;;;;;7.90;100.00;100634.25;5053375;28;20206;-68
2023/03/22 05:11:07;;;;;;;15.68;3.97;;;;;;;7.91;100.00;100638.53;5053336;28;20033;-68
2023/03/22 05:13:32;;;;;;;14.23;4.38;;;;;;;7.92;100.00;100632.28;5053269;28;20063;-69
2023/03/22 05:15:58;;;;;;;17.33;4.43;;;;;;;7.92;100.00;100627.00;5068791;28;20053;-69
2023/03/22 05:18:25;;;;;;;12.15;3.88;;;;;;;7.89;100.00;100625.44;5052982;28;20049;-69
2023/03/22 05:20:52;;;;;;;15.20;3.58;;;;;;;7.89;100.00;100624.59;5053449;28;20076;-68
2023/03/22 05:23:19;;;;;;;14.05;3.63;;;;;;;7.91;100.00;100630.59;5053127;28;20461;-69
2023/03/22 05:25:50;;;;;;;12.70;3.28;;;;;;;7.89;100.00;100627.25;5053311;28;20047;-68
2023/03/22 05:28:18;;;;;;;13.23;3.58;;;;;;;7.90;100.00;100627.13;5053395;28;20033;-70
2023/03/22 05:30:44;;;;;;;14.82;3.85;;;;;;;7.86;100.00;100614.25;5053153;28;20033;-68
2023/03/22 05:33:10;;;;;;;11.23;3.55;;;;;;;7.88;100.00;100614.97;5053271;28;20490;-68
2023/03/22 05:35:38;;;;;;;10.98;3.20;;;;;;;7.88;100.00;100610.53;5052531;28;20037;-69
2023/03/22 05:38:05;;;;;;;10.43;2.95;;;;;;;7.88;100.00;100602.56;5052964;28;20493;-69
2023/03/22 05:40:30;;;;;;;13.25;3.15;;;;;;;7.87;100.00;100600.88;5052718;28;20055;-69
2023/03/22 05:42:56;;;;;;;12.02;2.50;;;;;;;7.93;100.00;100607.50;5052846;28;20465;-69
2023/03/22 05:45:22;;;;;;;11.25;3.15;;;;;;;7.97;100.00;100608.88;5052804;28;20048;-69
2023/03/22 05:47:48;;;;;;;11.57;2.88;;;;;;;7.98;100.00;100605.28;5052710;28;20104;-68
2023/03/22 05:50:20;;;;;;;12.93;3.13;;;;;;;7.98;100.00;100610.59;5052957;28;20029;-68
2023/03/22 05:52:46;;;;;;;13.13;2.80;;;;;;;7.98;100.00;100610.59;5053030;28;20028;-68
2023/03/22 05:55:13;;;;;;;8.10;2.42;;;;;;;7.97;100.00;100605.41;5052912;28;20030;-68
2023/03/22 05:57:39;;;;;;;9.27;2.85;;;;;;;7.97;100.00;100608.88;5051740;28;20029;-70
2023/03/22 06:00:13;;;;;;;8.63;2.63;;;;;;;8.01;100.00;100606.84;5052833;28;20102;-68
2023/03/22 06:02:40;;;;;;;15.25;2.38;;;;;;;8.04;100.00;100606.59;5052377;28;20033;-68
2023/03/22 06:05:07;;;;;;;13.73;2.60;;;;;;;8.06;100.00;100602.84;5052496;28;20451;-69
2023/03/22 06:07:33;;;;;;;9.70;2.33;;;;;;;8.10;100.00;100595.47;5052291;28;20052;-69
2023/03/22 06:09:58;;;;;;;6.95;1.95;;;;;;;8.11;100.00;100602.47;5052651;28;20037;-69
2023/03/22 06:12:24;;;;;;;9.13;2.58;;;;;;;8.12;100.00;100606.78;5052353;28;20029;-69
2023/03/22 06:14:50;;;;;;;13.95;2.83;;;;;;;8.13;100.00;100600.50;5034759;28;20366;-69
2023/03/22 06:17:16;;;;;;;16.42;2.83;;;;;;;8.10;100.00;100593.66;5052566;28;20029;-69
2023/03/22 06:19:42;;;;;;;11.85;3.42;;;;;;;8.12;100.00;100597.03;5051716;28;20331;-70
2023/03/22 06:22:07;;;;;;;7.57;2.13;;;;;;;8.13;100.00;100605.81;5052509;28;20032;-70
2023/03/22 06:24:33;;;;;;;17.67;3.40;;;;;;;8.12;100.00;100601.47;5034078;28;20033;-70
2023/03/22 06:26:58;;;;;;;10.57;2.38;;;;;;;8.12;100.00;100597.03;5052450;28;20043;-70
2023/03/22 06:29:23;;;;;;;7.95;2.33;;;;;;;8.16;100.00;100605.56;5052138;28;20037;-71
2023/03/22 06:31:49;;;;;;;12.45;2.55;;;;;;;8.18;100.00;100595.69;5052420;28;20040;-69
2023/03/22 06:34:14;;;;;;;13.00;2.92;;;;;;;8.24;100.00;100618.16;5034498;28;20033;-69
2023/03/22 06:36:41;;;;;;;11.32;2.50;;;;;;;8.26;100.00;100590.56;5051965;28;20064;-70
2023/03/22 06:39:07;;;;;;;9.63;2.50;;;;;;;8.33;100.00;100592.69;5052491;28;20033;-70
2023/03/22 06:41:32;;;;;;;11.32;2.20;;;;;;;8.34;100.00;100597.03;5051727;28;20120;-70
2023/03/22 06:43:58;;;;;;;14.77;2.92;;;;;;;8.33;100.00;100601.50;5052388;28;20051;-69
2023/03/22 06:46:23;;;;;;;10.63;2.15;;;;;;;8.39;100.00;100592.16;5034530;28;20068;-69
2023/03/22 06:48:48;;;;;;;11.98;2.60;;;;;;;8.46;100.00;100596.00;5051733;28;20461;-68
2023/03/22 06:51:14;;;;;;;10.07;2.30;;;;;;;8.57;100.00;100590.63;5051789;28;20469;-69
2023/03/22 06:53:39;;;;;;;15.80;2.50;;;;;;;8.62;100.00;100592.88;5051549;28;20115;-69
2023/03/22 06:56:05;;;;;;;15.95;2.55;;;;;;;8.68;100.00;100591.50;5034271;28;20045;-69
2023/03/22 06:58:30;;;;;;;16.00;2.35;;;;;;;8.71;100.00;100594.72;5033889;28;20040;-69
2023/03/22 07:00:56;;;;;;;12.63;2.80;;;;;;;8.76;100.00;100594.31;5052072;28;20033;-69
2023/03/22 07:03:21;;;;;;;14.25;2.50;;;;;;;8.81;100.00;100589.47;5052028;28;20365;-68
2023/03/22 07:05:47;;;;;;;10.50;2.13;;;;;;;8.82;100.00;100578.72;5051386;28;20032;-68
2023/03/22 07:08:12;;;;;;;14.18;2.40;;;;;;;8.80;100.00;100579.81;5051953;28;20389;-68
2023/03/22 07:10:38;;;;;;;21.77;3.17;;;;;;;8.82;100.00;100601.75;5054842;28;20029;-68
2023/03/22 07:13:03;;;;;;;16.60;2.97;;;;;;;8.81;100.00;100592.13;5055798;28;20397;-69
2023/03/22 07:15:29;;;;;;;11.07;3.13;;;;;;;8.81;100.00;100602.75;5069686;28;20060;-70
2023/03/22 07:17:55;;;;;;;12.43;2.33;;;;;;;8.84;100.00;100591.88;5075741;28;20040;-71
2023/03/22 07:20:21;;;;;;;12.23;2.85;;;;;;;8.87;100.00;100596.91;5075800;28;20037;-70
2023/03/22 07:22:47;;;;;;;14.57;2.42;;;;;;;8.87;100.00;100588.06;5075361;28;20033;-70
2023/03/22 07:25:13;;;;;;;11.70;2.42;;;;;;;8.89;100.00;100594.09;5057402;28;20048;-70
2023/03/22 07:27:38;;;;;;;14.02;2.80;;;;;;;8.89;100.00;100576.38;5076840;28;20040;-70
2023/03/22 07:30:04;;;;;;;10.98;2.50;;;;;;;8.95;100.00;100590.91;5076068;28;20032;-70
2023/03/22 07:32:30;;;;;;;14.02;2.42;;;;;;;8.94;100.00;100602.50;5068829;28;20078;-72
2023/03/22 07:34:55;;;;;;;13.52;2.70;;;;;;;9.00;100.00;100597.50;5052132;28;20041;-72
2023/03/22 07:37:21;;;;;;;11.73;2.90;;;;;;;9.07;100.00;100600.44;5052401;28;20033;-70
2023/03/22 07:39:46;;;;;;;14.05;2.63;;;;;;;8.99;100.00;100587.84;5052214;28;20037;-70
2023/03/22 07:42:12;;;;;;;14.95;2.78;;;;;;;9.02;100.00;100591.19;5052734;28;20033;-71
2023/03/22 07:44:37;;;;;;;13.40;2.60;;;;;;;9.00;100.00;100599.28;5033939;28;20057;-70
2023/03/22 07:47:03;;;;;;;18.60;2.90;;;;;;;8.89;100.00;100604.72;5052830;28;20041;-72
2023/03/22 07:49:29;;;;;;;18.65;3.00;;;;;;;8.95;100.00;100589.09;5052714;28;20120;-69
2023/03/22 07:51:55;;;;;;;9.88;2.42;;;;;;;8.82;100.00;100577.88;5051852;28;20060;-71
2023/03/22 07:54:20;;;;;;;15.93;2.97;;;;;;;8.79;100.00;100591.41;5052487;28;20124;-71
2023/03/22 07:56:46;;;;;;;10.90;2.88;;;;;;;8.74;100.00;100605.06;5051627;28;20457;-70
2023/03/22 07:59:13;;;;;;;12.38;3.08;;;;;;;8.68;100.00;100592.34;5052420;28;20118;-74
2023/03/22 08:01:39;;;;;;;11.38;2.60;;;;;;;8.67;100.00;100595.97;5052025;28;20060;-71
2023/03/22 08:04:04;;;;;;;10.50;2.47;;;;;;;8.65;100.00;100601.41;5052185;28;20469;-71
2023/03/22 08:06:31;;;;;;;15.77;3.17;;;;;;;8.60;100.00;100602.78;5034314;28;20040;-72
2023/03/22 08:08:56;;;;;;;14.30;3.10;;;;;;;8.57;100.00;100603.03;5033871;28;20171;-71
2023/03/22 08:11:22;;;;;;;12.73;2.80;;;;;;;8.47;100.00;100606.47;5052310;28;20041;-71
2023/03/22 08:13:47;;;;;;;10.65;3.42;;;;;;;8.39;100.00;100624.81;5051853;28;20033;-68
2023/03/22 08:16:13;;;;;;;14.35;2.90;;;;;;;8.28;100.00;100604.53;5052039;28;20119;-70
2023/03/22 08:18:38;;;;;;;11.65;3.20;;;;;;;8.20;100.00;100604.31;5052100;28;20052;-72
2023/03/22 08:21:04;;;;;;;14.90;3.33;;;;;;;8.17;100.00;100612.53;5050830;28;20124;-71
2023/03/22 08:23:29;;;;;;;9.75;2.60;;;;;;;8.11;100.00;100600.63;5051828;28;20061;-72
2023/03/22 08:25:55;;;;;;;9.93;2.75;;;;;;;8.08;100.00;100602.72;5051270;28;20087;-71
2023/03/22 08:28:20;;;;;;;12.02;2.38;;;;;;;8.07;100.00;100606.31;5051833;28;20037;-71
2023/03/22 08:30:47;;;;;;;10.57;2.65;;;;;;;8.01;100.00;100593.59;5050913;28;20361;-70
2023/03/22 08:33:13;;;;;;;10.57;2.97;;;;;;;7.99;100.00;100595.53;5051590;28;20439;-70
2023/03/22 08:35:39;;;;;;;10.98;3.00;;;;;;;8.00;100.00;100590.13;5051923;28;20063;-72
2023/03/22 08:38:05;;;;;;;8.80;2.63;;;;;;;7.98;100.00;100599.16;5051319;28;20116;-72
2023/03/22 08:40:31;;;;;;;12.77;3.28;;;;;;;7.98;100.00;100594.69;5051931;28;20117;-71
2023/03/22 08:42:57;;;;;;;11.45;2.80;;;;;;;7.97;100.00;100590.34;5051391;28;20052;-72
2023/03/22 08:45:23;;;;;;;12.75;2.80;;;;;;;7.97;100.00;100593.00;5050797;28;20060;-72
2023/03/22 08:47:49;;;;;;;13.48;2.90;;;;;;;7.96;100.00;100601.94;5051033;28;20037;-71
2023/03/22 08:50:14;;;;;;;15.93;3.10;;;;;;;7.92;100.00;100587.25;5051313;28;20083;-71
2023/03/22 08:52:40;;;;;;;11.27;2.47;;;;;;;7.88;100.00;100597.28;5051337;28;20094;-71
2023/03/22 08:55:07;;;;;;;14.90;2.90;;;;;;;7.86;100.00;100582.47;5015874;28;20434;-70
2023/03/22 08:57:33;;;;;;;12.38;3.03;;;;;;;7.82;100.00;100600.41;5046432;28;20029;-71
2023/03/22 08:59:59;;;;;;;16.77;3.30;;;;;;;7.83;100.00;100591.50;5052712;28;20025;-71
2023/03/22 09:02:25;;;;;;;10.88;2.45;;;;;;;7.83;100.00;100583.56;5053470;28;20033;-71
2023/03/22 09:04:50;;;;;;;14.00;3.40;;;;;;;7.84;100.00;100590.53;5053653;28;20021;-71
2023/03/22 09:07:17;;;;;;;13.90;2.85;;;;;;;7.84;100.00;100595.84;5054235;28;20048;-71
2023/03/22 09:09:43;;;;;;;10.38;2.72;;;;;;;7.83;100.00;100594.16;5053777;28;20037;-71
2023/03/22 09:12:08;;;;;;;14.98;3.53;;;;;;;7.83;100.00;100599.44;5053358;28;20063;-71
2023/03/22 09:14:34;;;;;;;13.23;3.00;;;;;;;7.84;100.00;100605.59;5053725;28;20036;-71
2023/03/22 09:16:59;;;;;;;18.38;3.00;;;;;;;7.82;100.00;100599.56;5052938;28;20040;-71
2023/03/22 09:19:25;;;;;;;8.40;2.80;;;;;;;7.81;100.00;100592.59;5053662;28;20047;-71
2023/03/22 09:21:50;;;;;;;11.65;2.90;;;;;;;7.80;100.00;100598.88;5053249;28;20029;-72
2023/03/22 09:24:16;;;;;;;13.50;3.20;;;;;;;7.79;100.00;100602.47;5053285;28;20445;-71
2023/03/22 09:26:41;;;;;;;14.90;3.35;;;;;;;7.77;100.00;100603.44;5053520;28;20053;-72
2023/03/22 09:29:07;;;;;;;15.43;3.47;;;;;;;7.76;100.00;100601.78;5034827;28;20689;-71
2023/03/22 09:31:32;;;;;;;14.50;3.25;;;;;;;7.79;100.00;100594.53;5053411;28;20033;-71
2023/03/22 09:33:57;;;;;;;16.85;3.55;;;;;;;7.78;100.00;100599.00;5052032;28;20556;-73
2023/03/22 09:36:23;;;;;;;15.65;2.90;;;;;;;7.77;100.00;100600.78;5053324;28;20480;-73
2023/03/22 09:38:48;;;;;;;15.77;3.47;;;;;;;7.79;100.00;100597.19;5053327;28;20037;-71
2023/03/22 09:41:23;;;;;;;15.20;3.17;;;;;;;7.83;100.00;100598.63;5052975;28;20045;-71
2023/03/22 09:43:54;;;;;;;20.30;3.75;;;;;;;7.86;100.00;100603.66;5053081;28;20143;-72
2023/03/22 09:46:29;;;;;;;19.17;3.78;;;;;;;7.88;100.00;100581.38;5053388;28;20025;-73
2023/03/22 09:48:57;;;;;;;14.95;3.25;;;;;;;7.88;100.00;100601.72;5052638;28;20029;-73
2023/03/22 09:51:35;;;;;;;11.05;2.95;;;;;;;7.85;100.00;100601.97;5052840;28;20037;-72
2023/03/22 09:54:01;;;;;;;15.25;3.00;;;;;;;7.84;100.00;100601.16;5052630;28;20139;-73
2023/03/22 09:56:28;;;;;;;14.77;3.88;;;;;;;7.85;100.00;100612.56;5034940;28;20033;-72
2023/03/22 09:59:06;;;;;;;13.48;3.15;;;;;;;7.85;100.00;100609.91;5052617;28;20040;-73
2023/03/22 10:01:33;;;;;;;13.48;3.20;;;;;;;7.89;100.00;100608.72;5053309;28;20040;-73
2023/03/22 10:04:25;;;;;;;10.43;2.95;;;;;;;7.93;100.00;100615.44;5052406;28;20055;-73
2023/03/22 10:07:05;;;;;;;14.23;3.20;;;;;;;7.93;100.00;100615.44;5053318;28;20086;-72
2023/03/22 10:09:42;;;;;;;10.10;2.80;;;;;;;7.94;100.00;100609.16;5053032;28;20028;-72
2023/03/22 10:12:21;;;;;;;11.85;3.22;;;;;;;7.95;100.00;100618.78;5052414;28;20033;-73
2023/03/22 10:14:54;;;;;;;12.73;3.60;;;;;;;7.99;100.00;100596.38;5052669;28;20024;-72
2023/03/22 10:17:25;;;;;;;13.32;2.83;;;;;;;8.08;100.00;100600.91;5052519;28;20043;-73
2023/03/22 10:19:56;;;;;;;11.52;2.97;;;;;;;8.12;100.00;100594.38;5052649;28;20025;-72
2023/03/22 10:22:28;;;;;;;10.52;2.80;;;;;;;8.19;100.00;100591.22;5052732;28;20071;-71
2023/03/22 10:24:55;;;;;;;18.02;3.13;;;;;;;8.20;100.00;100579.66;5052584;28;20021;-72
2023/03/22 10:27:22;;;;;;;16.50;3.35;;;;;;;8.21;100.00;100570.69;5030844;28;20033;-72
2023/03/22 10:30:03;;;;;;;10.65;3.00;;;;;;;8.22;100.00;100573.22;5029646;28;20499;-71
2023/03/22 10:32:37;;;;;;;13.67;3.23;;;;;;;8.33;100.00;100571.47;5029817;28;20029;-72
2023/03/22 10:35:03;;;;;;;9.05;2.55;;;;;;;8.42;100.00;100582.16;5029500;28;20044;-72
2023/03/22 10:37:33;;;;;;;17.08;3.75;;;;;;;8.47;100.00;100579.97;5029485;28;20025;-72
2023/03/22 10:40:05;;;;;;;11.32;3.33;;;;;;;8.57;100.00;100563.25;5029542;28;20088;-73
2023/03/22 10:42:35;;;;;;;14.13;3.33;;;;;;;8.65;100.00;100577.53;5029618;28;20056;-72
2023/03/22 10:45:23;;;;;;;16.42;4.03;;;;;;;8.74;100.00;100578.53;5029127;28;20053;-72
2023/03/22 10:48:02;;;;;;;11.85;3.15;;;;;;;8.68;100.00;100568.47;5029699;28;20036;-72
2023/03/22 10:50:31;;;;;;;9.07;2.70;;;;;;;8.78;100.00;100550.78;5029163;28;20045;-72
2023/03/22 10:53:10;;;;;;;8.90;2.88;;;;;;;8.91;100.00;100547.03;5029293;28;20033;-72
2023/03/22 10:55:42;;;;;;;15.32;3.38;;;;;;;9.10;100.00;100554.22;5029249;28;20039;-71
2023/03/22 10:58:17;;;;;;;12.35;3.08;;;;;;;9.27;100.00;100560.66;5029064;28;20172;-71
2023/03/22 11:00:49;;;;;;;8.30;2.65;;;;;;;9.45;100.00;100558.16;5029479;28;20051;-71
2023/03/22 11:03:41;;;;;;;10.65;3.03;;;;;;;9.55;100.00;100577.63;5028977;28;20029;-71
2023/03/22 11:06:09;;;;;;;10.73;2.65;;;;;;;9.66;100.00;100577.50;5029421;28;20037;-71
2023/03/22 11:08:42;;;;;;;7.53;3.08;;;;;;;9.57;100.00;100577.47;5029118;28;20030;-71
2023/03/22 11:11:16;;;;;;;9.20;2.78;;;;;;;9.51;100.00;100592.16;5028823;28;20113;-71
2023/03/22 11:13:47;;;;;;;14.75;3.00;;;;;;;9.49;100.00;100597.63;5029179;28;20033;-70
2023/03/22 11:16:16;;;;;;;9.25;2.55;;;;;;;9.43;100.00;100600.81;5029134;28;20033;-71
2023/03/22 11:18:42;;;;;;;10.48;2.92;;;;;;;9.32;100.00;100600.94;5029209;28;20513;-71
2023/03/22 11:21:14;;;;;;;11.55;2.90;;;;;;;9.24;100.00;100606.06;5028923;28;20117;-72
2023/03/22 11:23:44;;;;;;;11.63;2.95;;;;;;;9.25;100.00;100613.06;5029033;28;20503;-71
2023/03/22 11:26:12;;;;;;;4.35;2.42;;;;;;;9.15;100.00;100605.94;5028642;28;20044;-74
2023/03/22 11:28:46;;;;;;;10.02;2.15;;;;;;;9.15;100.00;100605.94;5029704;28;20481;-73
2023/03/22 11:31:14;;;;;;;7.40;2.38;;;;;;;9.14;100.00;100604.25;5028729;28;20068;-72